createdAt,value
2022-11-16T00:01:34.141Z,19.10
2022-11-16T00:04:04.532Z,19.10
2022-11-16T00:06:32.793Z,19.10
2022-11-16T00:09:21.874Z,19.10
2022-11-16T00:11:51.111Z,19.00
2022-11-16T00:14:19.204Z,19.00
2022-11-16T00:16:47.195Z,19.00
2022-11-16T00:19:15.051Z,18.90
2022-11-16T00:21:43.055Z,18.90
2022-11-16T00:24:14.216Z,18.90
2022-11-16T00:26:42.823Z,18.90
2022-11-16T00:29:15.039Z,19.00
2022-11-16T00:31:43.120Z,19.00
2022-11-16T00:34:10.975Z,18.90
2022-11-16T00:36:38.876Z,18.90
2022-11-16T00:39:06.787Z,18.90
2022-11-16T00:41:36.015Z,18.90
2022-11-16T00:44:03.924Z,18.90
2022-11-16T00:46:31.812Z,18.90
2022-11-16T00:48:59.746Z,18.90
2022-11-16T00:51:27.777Z,18.90
2022-11-16T00:53:55.698Z,18.90
2022-11-16T00:56:23.939Z,18.90
2022-11-16T00:58:53.190Z,18.90
2022-11-16T01:01:21.225Z,18.90
2022-11-16T01:03:49.195Z,18.90
2022-11-16T01:06:18.072Z,18.90
2022-11-16T01:08:46.354Z,18.90
2022-11-16T01:11:33.351Z,18.90
2022-11-16T01:14:03.611Z,18.80
2022-11-16T01:16:32.146Z,18.80
2022-11-16T01:19:00.285Z,18.80
2022-11-16T01:21:28.389Z,18.80
2022-11-16T01:23:57.017Z,18.80
2022-11-16T01:26:25.176Z,18.80
2022-11-16T01:28:53.232Z,18.80
2022-11-16T01:31:22.505Z,18.80
2022-11-16T01:33:50.426Z,18.80
2022-11-16T01:36:18.391Z,18.80
2022-11-16T01:38:47.847Z,18.80
2022-11-16T01:41:17.597Z,18.80
2022-11-16T01:44:07.140Z,18.80
2022-11-16T01:46:36.444Z,18.80
2022-11-16T01:49:06.981Z,18.80
2022-11-16T01:51:35.699Z,18.80
2022-11-16T01:54:08.415Z,18.80
2022-11-16T01:56:38.166Z,18.80
2022-11-16T01:59:06.739Z,18.80
2022-11-16T02:01:36.012Z,18.80
2022-11-16T02:04:04.001Z,18.80
2022-11-16T02:06:51.814Z,18.80
2022-11-16T02:09:52.884Z,18.80
2022-11-16T02:12:38.283Z,18.80
2022-11-16T02:15:10.494Z,18.80
2022-11-16T02:17:47.168Z,18.80
2022-11-16T02:20:47.815Z,18.80
2022-11-16T02:23:37.402Z,18.80
2022-11-16T02:26:18.255Z,18.80
2022-11-16T02:28:55.619Z,18.80
2022-11-16T02:31:29.395Z,18.80
2022-11-16T02:34:00.240Z,18.80
2022-11-16T02:36:28.245Z,18.80
2022-11-16T02:39:01.829Z,18.70
2022-11-16T02:41:34.594Z,18.80
2022-11-16T02:44:07.360Z,18.70
2022-11-16T02:46:39.110Z,18.70
2022-11-16T02:49:11.468Z,18.80
2022-11-16T02:51:40.998Z,18.80
2022-11-16T02:54:12.943Z,18.70
2022-11-16T02:56:49.253Z,18.70
2022-11-16T02:59:18.004Z,18.80
2022-11-16T03:01:53.021Z,18.80
2022-11-16T03:04:23.147Z,18.80
2022-11-16T03:06:52.403Z,18.70
2022-11-16T03:09:25.704Z,18.80
2022-11-16T03:12:00.361Z,18.70
2022-11-16T03:14:33.874Z,18.70
2022-11-16T03:17:06.987Z,18.70
2022-11-16T03:19:40.721Z,18.80
2022-11-16T03:22:13.597Z,18.70
2022-11-16T03:24:42.634Z,18.70
2022-11-16T03:27:17.900Z,18.70
2022-11-16T03:29:50.252Z,18.70
2022-11-16T03:32:24.472Z,18.70
2022-11-16T03:34:58.466Z,18.70
2022-11-16T03:37:27.148Z,18.80
2022-11-16T03:39:56.347Z,18.70
2022-11-16T03:42:26.691Z,18.70
2022-11-16T03:44:55.919Z,18.70
2022-11-16T03:47:25.171Z,18.70
2022-11-16T03:49:53.055Z,18.70
2022-11-16T03:52:20.986Z,18.70
2022-11-16T03:54:48.874Z,18.70
2022-11-16T03:57:18.453Z,18.70
2022-11-16T03:59:46.919Z,18.70
2022-11-16T04:02:14.862Z,18.70
2022-11-16T04:05:01.781Z,18.70
2022-11-16T04:07:47.235Z,18.70
2022-11-16T04:10:32.643Z,18.70
2022-11-16T04:13:18.595Z,18.60
2022-11-16T04:16:00.646Z,18.70
2022-11-16T04:18:45.962Z,18.60
2022-11-16T04:21:35.075Z,18.60
2022-11-16T04:24:15.012Z,18.60
2022-11-16T04:27:04.161Z,18.60
2022-11-16T04:29:32.453Z,18.70
2022-11-16T04:32:17.847Z,18.70
2022-11-16T04:35:02.977Z,18.60
2022-11-16T04:37:50.334Z,18.60
2022-11-16T04:40:18.936Z,18.60
2022-11-16T04:42:51.315Z,18.60
2022-11-16T04:45:36.903Z,18.60
2022-11-16T04:48:05.698Z,18.70
2022-11-16T04:50:33.563Z,18.70
2022-11-16T04:53:03.275Z,18.70
2022-11-16T04:55:31.190Z,18.60
2022-11-16T04:57:59.116Z,18.60
2022-11-16T05:00:27.343Z,18.60
2022-11-16T05:03:00.827Z,18.60
2022-11-16T05:05:29.356Z,18.60
2022-11-16T05:07:57.270Z,18.60
2022-11-16T05:10:26.576Z,18.60
2022-11-16T05:12:54.466Z,18.60
2022-11-16T05:15:22.410Z,18.60
2022-11-16T05:17:51.126Z,18.60
2022-11-16T05:20:36.353Z,18.60
2022-11-16T05:23:04.418Z,18.60
2022-11-16T05:25:36.729Z,18.60
2022-11-16T05:28:05.066Z,18.60
2022-11-16T05:30:32.940Z,18.60
2022-11-16T05:33:00.824Z,18.60
2022-11-16T05:35:28.938Z,18.60
2022-11-16T05:37:56.930Z,18.60
2022-11-16T05:40:24.784Z,18.60
2022-11-16T05:42:53.998Z,18.60
2022-11-16T05:45:21.895Z,18.60
2022-11-16T05:47:49.830Z,18.60
2022-11-16T05:50:17.782Z,18.60
2022-11-16T05:52:45.714Z,18.60
2022-11-16T05:55:13.635Z,18.60
2022-11-16T05:57:41.697Z,18.60
2022-11-16T06:00:12.436Z,18.60
2022-11-16T06:02:40.463Z,18.50
2022-11-16T06:05:09.025Z,18.60
2022-11-16T06:07:36.960Z,18.60
2022-11-16T06:10:05.469Z,18.60
2022-11-16T06:12:33.308Z,18.50
2022-11-16T06:15:01.183Z,18.60
2022-11-16T06:17:33.739Z,18.50
2022-11-16T06:20:01.634Z,18.50
2022-11-16T06:22:29.536Z,18.50
2022-11-16T06:24:57.712Z,18.50
2022-11-16T06:27:25.566Z,18.50
2022-11-16T06:29:53.428Z,18.50
2022-11-16T06:32:21.348Z,18.50
2022-11-16T06:34:50.573Z,18.50
2022-11-16T06:37:18.768Z,18.50
2022-11-16T06:39:46.617Z,18.50
2022-11-16T06:42:14.537Z,18.50
2022-11-16T06:44:42.423Z,18.50
2022-11-16T06:47:10.353Z,18.50
2022-11-16T06:49:38.268Z,18.50
2022-11-16T06:52:07.490Z,18.50
2022-11-16T06:54:35.572Z,18.50
2022-11-16T06:57:03.460Z,18.50
2022-11-16T06:59:31.576Z,18.50
2022-11-16T07:01:59.534Z,18.50
2022-11-16T07:04:27.519Z,18.50
2022-11-16T07:06:55.529Z,18.50
2022-11-16T07:09:24.889Z,18.50
2022-11-16T07:11:52.762Z,18.50
2022-11-16T07:14:20.647Z,18.40
2022-11-16T07:16:48.550Z,18.50
2022-11-16T07:19:16.587Z,18.50
2022-11-16T07:21:44.797Z,18.50
2022-11-16T07:24:12.696Z,18.50
2022-11-16T07:26:41.939Z,18.50
2022-11-16T07:29:09.820Z,18.50
2022-11-16T07:31:37.688Z,18.50
2022-11-16T07:34:05.747Z,18.50
2022-11-16T07:36:33.683Z,18.50
2022-11-16T07:39:01.937Z,18.60
2022-11-16T07:41:29.852Z,18.60
2022-11-16T07:44:01.041Z,18.60
2022-11-16T07:46:47.003Z,18.70
2022-11-16T07:49:16.483Z,18.70
2022-11-16T07:51:45.651Z,18.70
2022-11-16T07:54:14.182Z,18.70
2022-11-16T07:56:42.903Z,18.80
2022-11-16T07:59:12.336Z,18.80
2022-11-16T08:01:40.343Z,18.80
2022-11-16T08:04:08.271Z,18.90
2022-11-16T08:06:36.182Z,18.80
2022-11-16T08:09:04.332Z,18.80
2022-11-16T08:11:32.268Z,18.80
2022-11-16T08:14:00.169Z,18.90
2022-11-16T08:16:29.447Z,18.90
2022-11-16T08:18:57.363Z,18.90
2022-11-16T08:21:25.312Z,18.90
2022-11-16T08:23:58.108Z,18.90
2022-11-16T08:26:27.033Z,18.90
2022-11-16T08:28:56.452Z,18.90
2022-11-16T08:31:26.447Z,19.00
2022-11-16T08:33:56.476Z,18.90
2022-11-16T08:36:24.583Z,18.90
2022-11-16T08:38:53.454Z,19.00
2022-11-16T08:41:22.377Z,18.90
2022-11-16T08:43:53.100Z,18.90
2022-11-16T08:46:21.768Z,18.90
2022-11-16T08:48:49.732Z,18.90
2022-11-16T08:51:20.136Z,18.90
2022-11-16T08:53:49.386Z,18.90
2022-11-16T08:56:18.983Z,18.90
2022-11-16T08:58:49.413Z,18.80
2022-11-16T09:01:21.117Z,18.80
2022-11-16T09:03:49.050Z,18.80
2022-11-16T09:06:19.013Z,18.80
2022-11-16T09:08:47.721Z,18.80
2022-11-16T09:11:17.637Z,18.80
2022-11-16T09:13:46.737Z,18.90
2022-11-16T09:16:16.608Z,18.90
2022-11-16T09:18:46.269Z,18.90
2022-11-16T09:21:19.454Z,18.80
2022-11-16T09:23:47.961Z,18.40
2022-11-16T09:26:16.529Z,18.10
2022-11-16T09:28:44.474Z,17.90
2022-11-16T09:31:12.428Z,17.80
2022-11-16T09:33:40.389Z,17.80
2022-11-16T09:36:09.972Z,18.00
2022-11-16T09:39:14.344Z,18.10
2022-11-16T09:41:53.719Z,18.30
2022-11-16T09:44:42.764Z,18.40
2022-11-16T09:47:17.301Z,18.50
2022-11-16T09:49:49.903Z,18.50
2022-11-16T09:52:27.418Z,18.50
2022-11-16T09:54:59.414Z,18.60
2022-11-16T09:57:32.287Z,18.60
2022-11-16T10:00:03.973Z,18.60
2022-11-16T10:02:37.581Z,18.70
2022-11-16T10:05:14.771Z,18.70
2022-11-16T10:07:45.978Z,18.70
2022-11-16T10:10:16.360Z,18.80
2022-11-16T10:12:50.044Z,18.80
2022-11-16T10:15:36.959Z,18.90
2022-11-16T10:18:25.735Z,18.90
2022-11-16T10:21:09.691Z,18.90
2022-11-16T10:23:50.825Z,18.90
2022-11-16T10:26:30.737Z,18.90
2022-11-16T10:29:15.913Z,18.90
2022-11-16T10:31:57.007Z,19.00
2022-11-16T10:34:29.707Z,18.90
2022-11-16T10:37:04.183Z,18.90
2022-11-16T10:39:33.732Z,18.90
2022-11-16T10:42:07.828Z,18.90
2022-11-16T10:44:39.407Z,19.00
2022-11-16T10:47:16.811Z,19.00
2022-11-16T10:49:51.596Z,19.00
2022-11-16T10:52:19.470Z,19.00
2022-11-16T10:54:47.352Z,19.00
2022-11-16T10:57:17.736Z,19.00
2022-11-16T10:59:47.600Z,19.00
2022-11-16T11:02:32.307Z,19.00
2022-11-16T11:05:06.372Z,18.90
2022-11-16T11:07:36.344Z,18.90
2022-11-16T11:10:05.650Z,19.00
2022-11-16T11:12:41.147Z,19.00
2022-11-16T11:15:26.879Z,18.90
2022-11-16T11:18:14.286Z,18.90
2022-11-16T11:20:45.527Z,18.90
2022-11-16T11:23:16.650Z,19.00
2022-11-16T11:25:52.807Z,19.00
2022-11-16T11:28:26.122Z,19.00
2022-11-16T11:30:58.379Z,19.00
2022-11-16T11:33:28.749Z,19.00
2022-11-16T11:36:01.653Z,18.90
2022-11-16T11:38:29.964Z,18.90
2022-11-16T11:41:00.451Z,18.90
2022-11-16T11:43:30.890Z,18.90
2022-11-16T11:46:06.827Z,18.90
2022-11-16T11:48:50.224Z,18.90
2022-11-16T11:51:23.510Z,18.80
2022-11-16T11:53:56.197Z,18.80
2022-11-16T11:56:25.056Z,18.80
2022-11-16T11:58:55.019Z,18.80
2022-11-16T12:01:52.479Z,18.80
2022-11-16T12:05:11.278Z,18.80
2022-11-16T12:07:52.815Z,18.90
2022-11-16T12:10:30.152Z,18.90
2022-11-16T12:13:13.505Z,18.90
2022-11-16T12:16:00.197Z,18.90
2022-11-16T12:18:43.845Z,18.90
2022-11-16T12:21:14.256Z,18.90
2022-11-16T12:24:04.346Z,18.90
2022-11-16T12:26:46.055Z,18.90
2022-11-16T12:29:25.480Z,19.00
2022-11-16T12:32:31.834Z,18.90
2022-11-16T12:35:15.694Z,18.90
2022-11-16T12:37:50.916Z,19.00
2022-11-16T12:40:35.783Z,19.00
2022-11-16T12:43:15.224Z,19.00
2022-11-16T12:46:10.210Z,19.10
2022-11-16T12:49:13.872Z,19.10
2022-11-16T12:51:56.273Z,19.10
2022-11-16T12:55:24.264Z,19.10
2022-11-16T12:57:49.911Z,19.10
2022-11-16T13:00:19.617Z,19.10
2022-11-16T13:03:02.562Z,19.10
2022-11-16T13:05:48.096Z,19.00
2022-11-16T13:08:23.736Z,19.00
2022-11-16T13:11:02.500Z,19.10
2022-11-16T13:13:38.344Z,19.00
2022-11-16T13:16:07.978Z,18.90
2022-11-16T13:18:41.328Z,19.00
2022-11-16T13:21:22.798Z,19.00
2022-11-16T13:24:01.449Z,19.00
2022-11-16T13:26:34.504Z,19.00
2022-11-16T13:29:12.984Z,19.00
2022-11-16T13:31:47.955Z,19.00
2022-11-16T13:34:17.336Z,19.00
2022-11-16T13:36:49.740Z,19.00
2022-11-16T13:39:22.586Z,19.00
2022-11-16T13:41:52.472Z,19.10
2022-11-16T13:44:29.510Z,19.00
2022-11-16T13:47:04.177Z,19.00
2022-11-16T13:49:35.895Z,19.00
2022-11-16T13:52:22.662Z,19.00
2022-11-16T13:54:54.675Z,19.00
2022-11-16T13:57:26.921Z,19.00
2022-11-16T14:00:11.569Z,19.00
2022-11-16T14:02:41.540Z,19.00
2022-11-16T14:05:17.368Z,19.00
2022-11-16T14:07:49.638Z,19.00
2022-11-16T14:10:50.941Z,19.00
2022-11-16T14:13:40.315Z,19.00
2022-11-16T14:16:41.927Z,19.00
2022-11-16T14:19:49.122Z,19.00
2022-11-16T14:22:34.794Z,19.00
2022-11-16T14:25:12.386Z,19.00
2022-11-16T14:27:46.251Z,19.00
2022-11-16T14:30:21.128Z,19.00
2022-11-16T14:32:52.200Z,19.00
2022-11-16T14:35:33.719Z,19.00
2022-11-16T14:38:03.871Z,19.10
2022-11-16T14:40:46.214Z,19.00
2022-11-16T14:43:27.923Z,19.00
2022-11-16T14:46:00.269Z,19.00
2022-11-16T14:48:29.084Z,19.00
2022-11-16T14:51:09.557Z,19.00
2022-11-16T14:53:41.411Z,18.90
2022-11-16T14:56:13.012Z,19.00
2022-11-16T14:58:50.931Z,19.00
2022-11-16T15:01:21.246Z,19.00
2022-11-16T15:03:54.634Z,18.90
2022-11-16T15:06:23.294Z,18.90
2022-11-16T15:08:55.140Z,18.90
2022-11-16T15:11:48.188Z,18.90
2022-11-16T15:14:19.639Z,18.90
2022-11-16T15:16:52.277Z,18.90
2022-11-16T15:19:20.603Z,18.90
2022-11-16T15:21:53.330Z,18.90
2022-11-16T15:24:30.943Z,18.90
2022-11-16T15:27:21.231Z,18.90
2022-11-16T15:29:49.559Z,19.00
2022-11-16T15:32:18.652Z,19.00
2022-11-16T15:34:51.413Z,19.10
2022-11-16T15:37:28.091Z,19.20
2022-11-16T15:39:57.338Z,19.20
2022-11-16T15:42:28.018Z,19.20
2022-11-16T15:44:56.695Z,19.20
2022-11-16T15:47:25.271Z,19.30
2022-11-16T15:49:53.835Z,19.30
2022-11-16T15:52:43.123Z,19.30
2022-11-16T15:55:34.407Z,19.20
2022-11-16T15:58:06.760Z,19.20
2022-11-16T16:00:37.434Z,19.20
2022-11-16T16:03:08.686Z,19.20
2022-11-16T16:05:38.606Z,19.20
2022-11-16T16:08:07.888Z,19.20
2022-11-16T16:10:36.012Z,19.20
2022-11-16T16:13:25.766Z,19.10
2022-11-16T16:16:13.017Z,19.10
2022-11-16T16:18:43.449Z,19.10
2022-11-16T16:21:13.805Z,19.10
2022-11-16T16:23:52.557Z,19.10
2022-11-16T16:26:21.171Z,19.10
2022-11-16T16:28:50.835Z,19.10
2022-11-16T16:31:19.925Z,19.20
2022-11-16T16:33:48.109Z,19.20
2022-11-16T16:36:15.981Z,19.10
2022-11-16T16:38:43.889Z,19.10
2022-11-16T16:41:24.281Z,19.10
2022-11-16T16:43:54.037Z,19.10
2022-11-16T16:46:21.935Z,19.10
2022-11-16T16:48:49.842Z,19.10
2022-11-16T16:51:17.772Z,19.10
2022-11-16T16:53:45.649Z,19.10
2022-11-16T16:56:16.221Z,19.10
2022-11-16T16:58:44.138Z,19.10
2022-11-16T17:01:13.631Z,19.20
2022-11-16T17:03:41.720Z,19.20
2022-11-16T17:06:09.752Z,19.20
2022-11-16T17:08:38.910Z,19.10
2022-11-16T17:11:07.262Z,19.20
2022-11-16T17:13:35.502Z,19.20
2022-11-16T17:16:06.070Z,19.20
2022-11-16T17:18:35.351Z,19.20
2022-11-16T17:21:05.298Z,19.30
2022-11-16T17:23:33.738Z,19.30
2022-11-16T17:26:04.948Z,19.30
2022-11-16T17:28:32.900Z,19.40
2022-11-16T17:31:03.107Z,19.40
2022-11-16T17:33:35.687Z,19.40
2022-11-16T17:36:04.053Z,19.50
2022-11-16T17:38:32.300Z,19.40
2022-11-16T17:41:08.387Z,19.40
2022-11-16T17:43:37.044Z,19.40
2022-11-16T17:46:06.538Z,19.40
2022-11-16T17:48:36.526Z,19.40
2022-11-16T17:51:05.004Z,19.40
2022-11-16T17:53:35.116Z,19.30
2022-11-16T17:56:03.529Z,19.30
2022-11-16T17:58:32.333Z,19.20
2022-11-16T18:01:00.933Z,19.20
2022-11-16T18:03:29.284Z,19.20
2022-11-16T18:06:04.848Z,19.10
2022-11-16T18:08:33.291Z,19.20
2022-11-16T18:11:05.382Z,19.20
2022-11-16T18:13:33.944Z,19.30
2022-11-16T18:16:06.615Z,19.30
2022-11-16T18:18:34.822Z,19.40
2022-11-16T18:21:04.209Z,19.40
2022-11-16T18:23:33.957Z,19.40
2022-11-16T18:26:03.287Z,19.50
2022-11-16T18:28:31.183Z,19.50
2022-11-16T18:31:04.390Z,19.50
2022-11-16T18:33:32.644Z,19.50
2022-11-16T18:36:00.886Z,19.50
2022-11-16T18:38:30.211Z,19.50
2022-11-16T18:41:06.102Z,19.50
2022-11-16T18:43:35.219Z,19.50
2022-11-16T18:46:03.642Z,19.50
2022-11-16T18:48:31.588Z,19.50
2022-11-16T18:51:00.117Z,19.40
2022-11-16T18:53:30.310Z,19.40
2022-11-16T18:55:58.517Z,19.40
2022-11-16T19:01:17.252Z,19.40
2022-11-16T19:03:45.210Z,19.40
2022-11-16T19:06:14.802Z,19.40
2022-11-16T19:08:46.903Z,19.50
2022-11-16T19:11:18.486Z,19.50
2022-11-16T19:13:46.844Z,19.60
2022-11-16T19:16:15.030Z,19.60
2022-11-16T19:18:42.888Z,19.60
2022-11-16T19:21:12.788Z,19.60
2022-11-16T19:23:44.337Z,19.50
2022-11-16T19:26:13.082Z,19.50
2022-11-16T19:28:42.285Z,19.50
2022-11-16T19:31:11.900Z,19.50
2022-11-16T19:33:40.446Z,19.40
2022-11-16T19:36:09.986Z,19.40
2022-11-16T19:38:38.245Z,19.40
2022-11-16T19:41:08.578Z,19.30
2022-11-16T19:43:36.901Z,19.30
2022-11-16T19:46:06.464Z,19.30
2022-11-16T19:48:34.880Z,19.30
2022-11-16T19:51:07.176Z,19.30
2022-11-16T19:53:35.641Z,19.30
2022-11-16T19:56:04.321Z,19.30
2022-11-16T19:58:36.986Z,19.30
2022-11-16T20:01:06.221Z,19.30
2022-11-16T20:03:35.140Z,19.30
2022-11-16T20:06:08.496Z,19.30
2022-11-16T20:08:36.807Z,19.30
2022-11-16T20:11:11.911Z,19.40
2022-11-16T20:13:41.985Z,19.40
2022-11-16T20:16:11.635Z,19.50
2022-11-16T20:18:40.027Z,19.60
2022-11-16T20:21:09.776Z,19.60
2022-11-16T20:23:38.009Z,19.60
2022-11-16T20:26:06.911Z,19.60
2022-11-16T20:28:36.178Z,19.60
2022-11-16T20:31:08.755Z,19.50
2022-11-16T20:33:37.314Z,19.40
2022-11-16T20:36:07.459Z,19.30
2022-11-16T20:38:35.563Z,19.40
2022-11-16T20:41:11.207Z,19.30
2022-11-16T20:43:40.224Z,19.30
2022-11-16T20:46:10.808Z,19.30
2022-11-16T20:48:40.385Z,19.30
2022-11-16T20:51:09.496Z,19.30
2022-11-16T20:53:38.205Z,19.30
2022-11-16T20:56:07.603Z,19.30
2022-11-16T20:58:35.828Z,19.40
2022-11-16T21:01:07.017Z,19.30
2022-11-16T21:03:36.655Z,19.20
2022-11-16T21:06:08.421Z,19.20
2022-11-16T21:08:37.034Z,19.20
2022-11-16T21:11:11.180Z,19.30
2022-11-16T21:13:56.680Z,19.30
2022-11-16T21:16:24.676Z,19.30
2022-11-16T21:18:54.665Z,19.30
2022-11-16T21:21:22.949Z,19.40
2022-11-16T21:23:52.395Z,19.40
2022-11-16T21:26:22.089Z,19.40
2022-11-16T21:28:50.079Z,19.40
2022-11-16T21:31:19.542Z,19.50
2022-11-16T21:33:48.161Z,19.50
2022-11-16T21:36:19.794Z,19.50
2022-11-16T21:38:48.819Z,19.50
2022-11-16T21:41:17.646Z,19.50
2022-11-16T21:43:45.928Z,19.50
2022-11-16T21:46:16.000Z,19.50
2022-11-16T21:48:44.271Z,19.50
2022-11-16T21:51:13.655Z,19.50
2022-11-16T21:53:43.073Z,19.50
2022-11-16T21:56:14.402Z,19.50
2022-11-16T21:58:42.865Z,19.40
2022-11-16T22:01:12.092Z,19.40
2022-11-16T22:03:40.380Z,19.50
2022-11-16T22:06:40.762Z,19.50
2022-11-16T22:09:10.005Z,19.60
2022-11-16T22:11:37.879Z,19.60
2022-11-16T22:14:05.792Z,19.70
2022-11-16T22:16:33.708Z,19.60
2022-11-16T22:19:01.751Z,19.60
2022-11-16T22:21:29.629Z,19.70
2022-11-16T22:23:57.826Z,19.60
2022-11-16T22:26:27.380Z,19.60
2022-11-16T22:28:55.295Z,19.60
2022-11-16T22:31:23.178Z,19.50
2022-11-16T22:33:53.474Z,19.50
2022-11-16T22:36:21.396Z,19.40
2022-11-16T22:38:49.328Z,19.40
2022-11-16T22:41:17.591Z,19.40
2022-11-16T22:43:46.898Z,19.40
2022-11-16T22:46:14.766Z,19.40
2022-11-16T22:48:43.592Z,19.40
2022-11-16T22:51:19.093Z,19.40
2022-11-16T22:53:47.064Z,19.40
2022-11-16T22:56:15.103Z,19.40
2022-11-16T22:58:42.978Z,19.40
2022-11-16T23:01:12.213Z,19.40
2022-11-16T23:03:40.497Z,19.50
2022-11-16T23:18:55.727Z,19.40
2022-11-16T23:21:41.899Z,19.30
2022-11-16T23:24:29.480Z,19.30
2022-11-16T23:27:15.839Z,19.20
2022-11-16T23:29:44.206Z,19.20
2022-11-16T23:32:12.286Z,19.20
2022-11-16T23:34:41.566Z,19.10
2022-11-16T23:37:09.450Z,19.10
2022-11-16T23:39:37.341Z,19.10
2022-11-16T23:42:22.763Z,19.10
2022-11-16T23:44:50.458Z,19.10
2022-11-16T23:47:18.355Z,19.10
2022-11-16T23:49:47.626Z,19.10
2022-11-16T23:52:15.518Z,19.10
2022-11-16T23:54:43.403Z,19.10
2022-11-16T23:57:11.340Z,19.10
2022-11-16T23:59:39.188Z,19.10
